sensor_id;sensor_type;location;lat;lon;timestamp;P1;durP1;ratioP1;P2;durP2;ratioP2
62202;SDS011;48199;49.138;7.414;2023-09-12T00:01:56;29.00;;;10.57;;
62202;SDS011;48199;49.138;7.414;2023-09-12T00:04:21;22.80;;;10.87;;
62202;SDS011;48199;49.138;7.414;2023-09-12T00:06:46;20.63;;;11.33;;
62202;SDS011;48199;49.138;7.414;2023-09-12T00:09:11;19.13;;;11.50;;
62202;SDS011;48199;49.138;7.414;2023-09-12T00:11:37;15.68;;;10.10;;
62202;SDS011;48199;49.138;7.414;2023-09-12T00:14:02;18.43;;;11.13;;
62202;SDS011;48199;49.138;7.414;2023-09-12T00:16:28;18.83;;;10.80;;
62202;SDS011;48199;49.138;7.414;2023-09-12T00:18:53;21.83;;;11.53;;
62202;SDS011;48199;49.138;7.414;2023-09-12T00:21:18;14.57;;;10.20;;
62202;SDS011;48199;49.138;7.414;2023-09-12T00:23:43;20.63;;;11.60;;
62202;SDS011;48199;49.138;7.414;2023-09-12T00:26:08;21.48;;;10.80;;
62202;SDS011;48199;49.138;7.414;2023-09-12T00:28:34;18.53;;;11.27;;
62202;SDS011;48199;49.138;7.414;2023-09-12T00:30:59;22.35;;;11.75;;
62202;SDS011;48199;49.138;7.414;2023-09-12T00:33:24;16.63;;;11.43;;
62202;SDS011;48199;49.138;7.414;2023-09-12T00:35:49;21.83;;;10.33;;
62202;SDS011;48199;49.138;7.414;2023-09-12T00:38:15;17.67;;;10.90;;
62202;SDS011;48199;49.138;7.414;2023-09-12T00:40:40;22.93;;;11.43;;
62202;SDS011;48199;49.138;7.414;2023-09-12T00:43:05;23.07;;;11.77;;
62202;SDS011;48199;49.138;7.414;2023-09-12T00:45:30;17.97;;;12.20;;
62202;SDS011;48199;49.138;7.414;2023-09-12T00:47:56;17.60;;;10.83;;
62202;SDS011;48199;49.138;7.414;2023-09-12T00:50:23;19.60;;;10.95;;
62202;SDS011;48199;49.138;7.414;2023-09-12T00:52:49;15.88;;;10.55;;
62202;SDS011;48199;49.138;7.414;2023-09-12T00:55:14;24.97;;;11.57;;
62202;SDS011;48199;49.138;7.414;2023-09-12T00:57:40;17.30;;;11.40;;
62202;SDS011;48199;49.138;7.414;2023-09-12T01:00:06;16.92;;;10.93;;
62202;SDS011;48199;49.138;7.414;2023-09-12T01:02:41;25.10;;;11.00;;
62202;SDS011;48199;49.138;7.414;2023-09-12T01:05:06;18.52;;;11.23;;
62202;SDS011;48199;49.138;7.414;2023-09-12T01:07:32;18.35;;;10.75;;
62202;SDS011;48199;49.138;7.414;2023-09-12T01:09:57;22.50;;;11.60;;
62202;SDS011;48199;49.138;7.414;2023-09-12T01:12:22;24.93;;;11.33;;
62202;SDS011;48199;49.138;7.414;2023-09-12T01:14:47;24.07;;;11.97;;
62202;SDS011;48199;49.138;7.414;2023-09-12T01:17:13;28.20;;;13.60;;
62202;SDS011;48199;49.138;7.414;2023-09-12T01:19:38;25.80;;;11.63;;
62202;SDS011;48199;49.138;7.414;2023-09-12T01:22:10;18.87;;;11.17;;
62202;SDS011;48199;49.138;7.414;2023-09-12T01:27:12;15.13;;;9.82;;
62202;SDS011;48199;49.138;7.414;2023-09-12T01:29:38;17.88;;;10.95;;
62202;SDS011;48199;49.138;7.414;2023-09-12T01:32:04;18.80;;;11.30;;
62202;SDS011;48199;49.138;7.414;2023-09-12T01:34:29;26.25;;;10.85;;
62202;SDS011;48199;49.138;7.414;2023-09-12T01:36:54;23.87;;;10.67;;
62202;SDS011;48199;49.138;7.414;2023-09-12T01:39:21;23.02;;;11.40;;
62202;SDS011;48199;49.138;7.414;2023-09-12T01:41:46;19.53;;;10.10;;
62202;SDS011;48199;49.138;7.414;2023-09-12T01:44:13;16.85;;;10.63;;
62202;SDS011;48199;49.138;7.414;2023-09-12T01:46:39;20.58;;;11.65;;
62202;SDS011;48199;49.138;7.414;2023-09-12T01:49:05;17.50;;;10.77;;
62202;SDS011;48199;49.138;7.414;2023-09-12T01:51:30;19.38;;;11.77;;
62202;SDS011;48199;49.138;7.414;2023-09-12T01:53:56;23.30;;;11.50;;
62202;SDS011;48199;49.138;7.414;2023-09-12T01:56:22;25.42;;;12.15;;
62202;SDS011;48199;49.138;7.414;2023-09-12T01:58:48;23.77;;;13.05;;
62202;SDS011;48199;49.138;7.414;2023-09-12T02:01:14;25.42;;;12.80;;
62202;SDS011;48199;49.138;7.414;2023-09-12T02:03:39;33.78;;;12.93;;
62202;SDS011;48199;49.138;7.414;2023-09-12T02:06:04;22.33;;;13.03;;
62202;SDS011;48199;49.138;7.414;2023-09-12T02:08:29;28.93;;;11.13;;
62202;SDS011;48199;49.138;7.414;2023-09-12T02:10:55;26.20;;;11.47;;
62202;SDS011;48199;49.138;7.414;2023-09-12T02:13:20;20.80;;;10.60;;
62202;SDS011;48199;49.138;7.414;2023-09-12T02:15:45;20.33;;;11.50;;
62202;SDS011;48199;49.138;7.414;2023-09-12T02:18:10;20.17;;;10.83;;
62202;SDS011;48199;49.138;7.414;2023-09-12T02:20:37;17.70;;;10.60;;
62202;SDS011;48199;49.138;7.414;2023-09-12T02:23:03;21.08;;;11.27;;
62202;SDS011;48199;49.138;7.414;2023-09-12T02:25:28;21.27;;;11.63;;
62202;SDS011;48199;49.138;7.414;2023-09-12T02:27:53;25.30;;;11.23;;
62202;SDS011;48199;49.138;7.414;2023-09-12T02:30:18;25.07;;;11.83;;
62202;SDS011;48199;49.138;7.414;2023-09-12T02:32:43;22.17;;;11.10;;
62202;SDS011;48199;49.138;7.414;2023-09-12T02:35:09;22.23;;;9.93;;
62202;SDS011;48199;49.138;7.414;2023-09-12T02:37:34;21.05;;;10.45;;
62202;SDS011;48199;49.138;7.414;2023-09-12T02:40:00;21.92;;;10.13;;
62202;SDS011;48199;49.138;7.414;2023-09-12T02:42:25;17.23;;;10.03;;
62202;SDS011;48199;49.138;7.414;2023-09-12T02:44:50;21.67;;;11.40;;
62202;SDS011;48199;49.138;7.414;2023-09-12T02:47:15;25.42;;;11.05;;
62202;SDS011;48199;49.138;7.414;2023-09-12T02:49:40;17.80;;;11.33;;
62202;SDS011;48199;49.138;7.414;2023-09-12T02:52:06;21.33;;;12.77;;
62202;SDS011;48199;49.138;7.414;2023-09-12T02:54:31;19.97;;;10.67;;
62202;SDS011;48199;49.138;7.414;2023-09-12T02:56:56;18.23;;;11.30;;
62202;SDS011;48199;49.138;7.414;2023-09-12T02:59:21;26.37;;;12.27;;
62202;SDS011;48199;49.138;7.414;2023-09-12T03:01:46;18.80;;;11.65;;
62202;SDS011;48199;49.138;7.414;2023-09-12T03:04:12;24.43;;;12.73;;
62202;SDS011;48199;49.138;7.414;2023-09-12T03:06:37;19.63;;;11.90;;
62202;SDS011;48199;49.138;7.414;2023-09-12T03:09:02;19.40;;;12.70;;
62202;SDS011;48199;49.138;7.414;2023-09-12T03:11:28;20.70;;;11.48;;
62202;SDS011;48199;49.138;7.414;2023-09-12T03:13:54;20.92;;;11.93;;
62202;SDS011;48199;49.138;7.414;2023-09-12T03:16:19;20.03;;;12.43;;
62202;SDS011;48199;49.138;7.414;2023-09-12T03:18:45;26.20;;;11.27;;
62202;SDS011;48199;49.138;7.414;2023-09-12T03:21:10;20.53;;;11.03;;
62202;SDS011;48199;49.138;7.414;2023-09-12T03:23:35;24.80;;;11.27;;
62202;SDS011;48199;49.138;7.414;2023-09-12T03:26:04;28.33;;;12.10;;
62202;SDS011;48199;49.138;7.414;2023-09-12T03:28:29;22.52;;;11.85;;
62202;SDS011;48199;49.138;7.414;2023-09-12T03:31:03;18.73;;;10.85;;
62202;SDS011;48199;49.138;7.414;2023-09-12T03:33:28;22.77;;;11.32;;
62202;SDS011;48199;49.138;7.414;2023-09-12T03:35:53;18.20;;;11.83;;
62202;SDS011;48199;49.138;7.414;2023-09-12T03:38:19;21.15;;;12.43;;
62202;SDS011;48199;49.138;7.414;2023-09-12T03:40:44;18.73;;;10.80;;
62202;SDS011;48199;49.138;7.414;2023-09-12T03:43:09;16.63;;;11.10;;
62202;SDS011;48199;49.138;7.414;2023-09-12T03:45:35;24.87;;;11.97;;
62202;SDS011;48199;49.138;7.414;2023-09-12T03:48:00;24.00;;;11.67;;
62202;SDS011;48199;49.138;7.414;2023-09-12T03:50:25;19.37;;;11.83;;
62202;SDS011;48199;49.138;7.414;2023-09-12T03:52:50;28.33;;;12.83;;
62202;SDS011;48199;49.138;7.414;2023-09-12T03:55:15;21.53;;;10.73;;
62202;SDS011;48199;49.138;7.414;2023-09-12T03:57:41;20.45;;;11.80;;
62202;SDS011;48199;49.138;7.414;2023-09-12T04:00:06;20.07;;;11.23;;
62202;SDS011;48199;49.138;7.414;2023-09-12T04:02:33;22.23;;;11.68;;
62202;SDS011;48199;49.138;7.414;2023-09-12T04:04:58;19.60;;;11.87;;
62202;SDS011;48199;49.138;7.414;2023-09-12T04:07:24;23.13;;;12.82;;
62202;SDS011;48199;49.138;7.414;2023-09-12T04:09:49;20.65;;;12.25;;
62202;SDS011;48199;49.138;7.414;2023-09-12T04:12:14;22.90;;;12.40;;
62202;SDS011;48199;49.138;7.414;2023-09-12T04:14:40;21.90;;;11.27;;
62202;SDS011;48199;49.138;7.414;2023-09-12T04:17:05;23.53;;;11.93;;
62202;SDS011;48199;49.138;7.414;2023-09-12T04:19:30;17.57;;;10.40;;
62202;SDS011;48199;49.138;7.414;2023-09-12T04:21:55;25.17;;;12.37;;
62202;SDS011;48199;49.138;7.414;2023-09-12T04:24:20;29.27;;;12.30;;
62202;SDS011;48199;49.138;7.414;2023-09-12T04:26:46;22.33;;;11.30;;
62202;SDS011;48199;49.138;7.414;2023-09-12T04:29:11;22.30;;;11.75;;
62202;SDS011;48199;49.138;7.414;2023-09-12T04:31:36;19.47;;;10.93;;
62202;SDS011;48199;49.138;7.414;2023-09-12T04:34:01;21.43;;;11.47;;
62202;SDS011;48199;49.138;7.414;2023-09-12T04:36:27;27.20;;;12.25;;
62202;SDS011;48199;49.138;7.414;2023-09-12T04:38:52;22.50;;;11.53;;
62202;SDS011;48199;49.138;7.414;2023-09-12T04:41:17;22.00;;;11.50;;
62202;SDS011;48199;49.138;7.414;2023-09-12T04:43:43;18.35;;;10.85;;
62202;SDS011;48199;49.138;7.414;2023-09-12T04:46:11;18.35;;;11.52;;
62202;SDS011;48199;49.138;7.414;2023-09-12T04:48:37;21.73;;;11.98;;
62202;SDS011;48199;49.138;7.414;2023-09-12T04:51:02;21.45;;;12.15;;
62202;SDS011;48199;49.138;7.414;2023-09-12T04:53:27;18.87;;;11.73;;
62202;SDS011;48199;49.138;7.414;2023-09-12T04:55:59;19.83;;;12.10;;
62202;SDS011;48199;49.138;7.414;2023-09-12T04:58:24;25.73;;;13.17;;
62202;SDS011;48199;49.138;7.414;2023-09-12T05:00:49;25.27;;;13.13;;
62202;SDS011;48199;49.138;7.414;2023-09-12T05:03:14;25.63;;;12.03;;
62202;SDS011;48199;49.138;7.414;2023-09-12T05:05:39;30.00;;;12.87;;
62202;SDS011;48199;49.138;7.414;2023-09-12T05:08:05;20.87;;;11.70;;
62202;SDS011;48199;49.138;7.414;2023-09-12T05:10:30;20.60;;;11.35;;
62202;SDS011;48199;49.138;7.414;2023-09-12T05:12:56;23.83;;;11.75;;
62202;SDS011;48199;49.138;7.414;2023-09-12T05:15:21;21.98;;;12.07;;
62202;SDS011;48199;49.138;7.414;2023-09-12T05:17:46;19.90;;;11.87;;
62202;SDS011;48199;49.138;7.414;2023-09-12T05:20:11;18.30;;;12.17;;
62202;SDS011;48199;49.138;7.414;2023-09-12T05:22:37;20.03;;;12.60;;
62202;SDS011;48199;49.138;7.414;2023-09-12T05:25:02;24.30;;;13.87;;
62202;SDS011;48199;49.138;7.414;2023-09-12T05:27:27;24.93;;;12.37;;
62202;SDS011;48199;49.138;7.414;2023-09-12T05:29:52;24.40;;;12.03;;
62202;SDS011;48199;49.138;7.414;2023-09-12T05:32:17;20.53;;;12.77;;
62202;SDS011;48199;49.138;7.414;2023-09-12T05:34:43;25.80;;;13.70;;
62202;SDS011;48199;49.138;7.414;2023-09-12T05:37:10;22.83;;;12.88;;
62202;SDS011;48199;49.138;7.414;2023-09-12T05:39:35;19.33;;;12.70;;
62202;SDS011;48199;49.138;7.414;2023-09-12T05:42:00;23.10;;;14.13;;
62202;SDS011;48199;49.138;7.414;2023-09-12T05:44:25;31.77;;;14.77;;
62202;SDS011;48199;49.138;7.414;2023-09-12T05:46:50;27.50;;;13.87;;
62202;SDS011;48199;49.138;7.414;2023-09-12T05:49:16;26.40;;;12.57;;
62202;SDS011;48199;49.138;7.414;2023-09-12T05:51:41;23.25;;;12.48;;
62202;SDS011;48199;49.138;7.414;2023-09-12T05:54:07;24.67;;;12.25;;
62202;SDS011;48199;49.138;7.414;2023-09-12T05:56:33;37.05;;;13.60;;
62202;SDS011;48199;49.138;7.414;2023-09-12T05:58:58;22.15;;;12.50;;
62202;SDS011;48199;49.138;7.414;2023-09-12T06:01:23;17.63;;;12.03;;
62202;SDS011;48199;49.138;7.414;2023-09-12T06:03:49;29.70;;;13.10;;
62202;SDS011;48199;49.138;7.414;2023-09-12T06:06:14;20.57;;;12.33;;
62202;SDS011;48199;49.138;7.414;2023-09-12T06:08:39;21.38;;;13.15;;
62202;SDS011;48199;49.138;7.414;2023-09-12T06:11:04;20.13;;;12.53;;
62202;SDS011;48199;49.138;7.414;2023-09-12T06:13:29;16.60;;;11.43;;
62202;SDS011;48199;49.138;7.414;2023-09-12T06:15:57;20.02;;;11.95;;
62202;SDS011;48199;49.138;7.414;2023-09-12T06:18:22;24.38;;;12.63;;
62202;SDS011;48199;49.138;7.414;2023-09-12T06:20:49;23.83;;;12.10;;
62202;SDS011;48199;49.138;7.414;2023-09-12T06:23:14;28.88;;;11.90;;
62202;SDS011;48199;49.138;7.414;2023-09-12T06:25:39;30.00;;;13.13;;
62202;SDS011;48199;49.138;7.414;2023-09-12T06:28:05;22.50;;;11.40;;
62202;SDS011;48199;49.138;7.414;2023-09-12T06:30:30;24.00;;;11.95;;
62202;SDS011;48199;49.138;7.414;2023-09-12T06:32:55;20.10;;;12.13;;
62202;SDS011;48199;49.138;7.414;2023-09-12T06:35:21;22.63;;;13.03;;
62202;SDS011;48199;49.138;7.414;2023-09-12T06:37:46;21.30;;;12.67;;
62202;SDS011;48199;49.138;7.414;2023-09-12T06:40:12;23.08;;;10.15;;
62202;SDS011;48199;49.138;7.414;2023-09-12T06:42:37;18.40;;;10.88;;
62202;SDS011;48199;49.138;7.414;2023-09-12T06:45:02;20.87;;;11.10;;
62202;SDS011;48199;49.138;7.414;2023-09-12T06:47:27;23.63;;;11.95;;
62202;SDS011;48199;49.138;7.414;2023-09-12T06:49:53;17.03;;;10.67;;
62202;SDS011;48199;49.138;7.414;2023-09-12T06:52:18;18.93;;;9.93;;
62202;SDS011;48199;49.138;7.414;2023-09-12T06:54:43;13.57;;;9.07;;
62202;SDS011;48199;49.138;7.414;2023-09-12T06:57:08;19.03;;;9.80;;
62202;SDS011;48199;49.138;7.414;2023-09-12T06:59:34;15.90;;;8.73;;
62202;SDS011;48199;49.138;7.414;2023-09-12T07:01:59;18.45;;;9.95;;
62202;SDS011;48199;49.138;7.414;2023-09-12T07:04:24;12.57;;;8.30;;
62202;SDS011;48199;49.138;7.414;2023-09-12T07:06:50;13.02;;;8.52;;
62202;SDS011;48199;49.138;7.414;2023-09-12T07:09:16;20.55;;;8.75;;
62202;SDS011;48199;49.138;7.414;2023-09-12T07:11:41;17.20;;;8.82;;
62202;SDS011;48199;49.138;7.414;2023-09-12T07:14:07;18.87;;;8.60;;
62202;SDS011;48199;49.138;7.414;2023-09-12T07:16:32;18.38;;;8.68;;
62202;SDS011;48199;49.138;7.414;2023-09-12T07:18:58;17.27;;;8.27;;
62202;SDS011;48199;49.138;7.414;2023-09-12T07:21:23;12.73;;;9.50;;
62202;SDS011;48199;49.138;7.414;2023-09-12T07:23:48;18.23;;;8.70;;
62202;SDS011;48199;49.138;7.414;2023-09-12T07:26:14;13.77;;;8.90;;
62202;SDS011;48199;49.138;7.414;2023-09-12T07:28:39;15.70;;;9.10;;
62202;SDS011;48199;49.138;7.414;2023-09-12T07:31:04;17.70;;;9.45;;
62202;SDS011;48199;49.138;7.414;2023-09-12T07:33:30;17.77;;;9.10;;
62202;SDS011;48199;49.138;7.414;2023-09-12T07:35:55;15.93;;;10.35;;
62202;SDS011;48199;49.138;7.414;2023-09-12T07:38:20;22.97;;;10.67;;
62202;SDS011;48199;49.138;7.414;2023-09-12T07:40:46;20.92;;;11.90;;
62202;SDS011;48199;49.138;7.414;2023-09-12T07:43:11;19.73;;;10.70;;
62202;SDS011;48199;49.138;7.414;2023-09-12T07:45:36;19.60;;;10.07;;
62202;SDS011;48199;49.138;7.414;2023-09-12T07:48:06;14.95;;;11.23;;
62202;SDS011;48199;49.138;7.414;2023-09-12T07:50:31;21.38;;;12.02;;
62202;SDS011;48199;49.138;7.414;2023-09-12T07:52:56;22.83;;;10.90;;
62202;SDS011;48199;49.138;7.414;2023-09-12T07:55:22;24.03;;;11.90;;
62202;SDS011;48199;49.138;7.414;2023-09-12T07:57:47;24.87;;;12.20;;
62202;SDS011;48199;49.138;7.414;2023-09-12T08:00:12;18.00;;;12.00;;
62202;SDS011;48199;49.138;7.414;2023-09-12T08:02:38;26.48;;;12.43;;
62202;SDS011;48199;49.138;7.414;2023-09-12T08:05:03;21.07;;;12.23;;
62202;SDS011;48199;49.138;7.414;2023-09-12T08:07:29;20.85;;;12.25;;
62202;SDS011;48199;49.138;7.414;2023-09-12T08:09:55;22.20;;;11.70;;
62202;SDS011;48199;49.138;7.414;2023-09-12T08:12:22;18.88;;;12.05;;
62202;SDS011;48199;49.138;7.414;2023-09-12T08:14:47;18.15;;;11.50;;
62202;SDS011;48199;49.138;7.414;2023-09-12T08:17:13;18.83;;;11.57;;
62202;SDS011;48199;49.138;7.414;2023-09-12T08:19:39;18.58;;;12.32;;
62202;SDS011;48199;49.138;7.414;2023-09-12T08:22:04;22.77;;;13.00;;
62202;SDS011;48199;49.138;7.414;2023-09-12T08:24:30;17.30;;;11.90;;
62202;SDS011;48199;49.138;7.414;2023-09-12T08:26:55;18.93;;;12.03;;
62202;SDS011;48199;49.138;7.414;2023-09-12T08:29:20;19.33;;;11.27;;
62202;SDS011;48199;49.138;7.414;2023-09-12T08:31:46;20.23;;;11.63;;
62202;SDS011;48199;49.138;7.414;2023-09-12T08:34:12;18.73;;;10.50;;
62202;SDS011;48199;49.138;7.414;2023-09-12T08:36:37;29.65;;;11.95;;
62202;SDS011;48199;49.138;7.414;2023-09-12T08:39:02;21.53;;;11.33;;
62202;SDS011;48199;49.138;7.414;2023-09-12T08:41:28;18.80;;;11.73;;
62202;SDS011;48199;49.138;7.414;2023-09-12T08:43:53;18.93;;;11.57;;
62202;SDS011;48199;49.138;7.414;2023-09-12T08:46:19;16.65;;;10.05;;
62202;SDS011;48199;49.138;7.414;2023-09-12T08:48:45;22.77;;;10.98;;
62202;SDS011;48199;49.138;7.414;2023-09-12T08:51:11;15.57;;;10.40;;
62202;SDS011;48199;49.138;7.414;2023-09-12T08:53:37;14.23;;;10.55;;
62202;SDS011;48199;49.138;7.414;2023-09-12T08:56:02;18.58;;;9.90;;
62202;SDS011;48199;49.138;7.414;2023-09-12T08:58:29;18.08;;;11.00;;
62202;SDS011;48199;49.138;7.414;2023-09-12T09:00:55;17.30;;;10.40;;
62202;SDS011;48199;49.138;7.414;2023-09-12T09:03:21;15.10;;;9.82;;
62202;SDS011;48199;49.138;7.414;2023-09-12T09:05:47;19.52;;;10.50;;
62202;SDS011;48199;49.138;7.414;2023-09-12T09:08:13;17.20;;;10.48;;
62202;SDS011;48199;49.138;7.414;2023-09-12T09:10:40;16.88;;;9.88;;
62202;SDS011;48199;49.138;7.414;2023-09-12T09:13:19;14.00;;;9.02;;
62202;SDS011;48199;49.138;7.414;2023-09-12T09:15:44;13.80;;;9.47;;
62202;SDS011;48199;49.138;7.414;2023-09-12T09:18:09;16.07;;;9.43;;
62202;SDS011;48199;49.138;7.414;2023-09-12T09:20:36;16.08;;;9.98;;
62202;SDS011;48199;49.138;7.414;2023-09-12T09:23:06;18.73;;;10.00;;
62202;SDS011;48199;49.138;7.414;2023-09-12T09:25:32;19.77;;;10.65;;
62202;SDS011;48199;49.138;7.414;2023-09-12T09:27:58;19.33;;;11.70;;
62202;SDS011;48199;49.138;7.414;2023-09-12T09:30:39;19.92;;;9.82;;
62202;SDS011;48199;49.138;7.414;2023-09-12T09:35:30;17.95;;;9.30;;
62202;SDS011;48199;49.138;7.414;2023-09-12T09:37:55;18.23;;;9.68;;
62202;SDS011;48199;49.138;7.414;2023-09-12T09:40:21;16.27;;;9.07;;
62202;SDS011;48199;49.138;7.414;2023-09-12T09:42:47;14.32;;;9.60;;
62202;SDS011;48199;49.138;7.414;2023-09-12T09:45:12;15.80;;;8.87;;
62202;SDS011;48199;49.138;7.414;2023-09-12T09:47:37;13.98;;;9.25;;
62202;SDS011;48199;49.138;7.414;2023-09-12T09:50:02;13.47;;;8.27;;
62202;SDS011;48199;49.138;7.414;2023-09-12T09:52:28;17.20;;;9.25;;
62202;SDS011;48199;49.138;7.414;2023-09-12T09:54:53;12.57;;;8.60;;
62202;SDS011;48199;49.138;7.414;2023-09-12T09:57:18;15.03;;;8.63;;
62202;SDS011;48199;49.138;7.414;2023-09-12T09:59:43;15.30;;;9.60;;
62202;SDS011;48199;49.138;7.414;2023-09-12T10:02:15;13.07;;;8.07;;
62202;SDS011;48199;49.138;7.414;2023-09-12T10:04:41;14.20;;;8.63;;
62202;SDS011;48199;49.138;7.414;2023-09-12T10:07:08;14.18;;;9.65;;
62202;SDS011;48199;49.138;7.414;2023-09-12T10:09:34;14.88;;;8.50;;
62202;SDS011;48199;49.138;7.414;2023-09-12T10:12:00;13.43;;;8.55;;
62202;SDS011;48199;49.138;7.414;2023-09-12T10:14:26;14.70;;;7.93;;
62202;SDS011;48199;49.138;7.414;2023-09-12T10:16:52;17.30;;;7.35;;
62202;SDS011;48199;49.138;7.414;2023-09-12T10:19:43;16.83;;;7.50;;
62202;SDS011;48199;49.138;7.414;2023-09-12T10:22:20;12.60;;;8.68;;
62202;SDS011;48199;49.138;7.414;2023-09-12T10:24:47;14.23;;;8.07;;
62202;SDS011;48199;49.138;7.414;2023-09-12T10:27:13;14.60;;;8.45;;
62202;SDS011;48199;49.138;7.414;2023-09-12T10:29:40;15.65;;;7.90;;
62202;SDS011;48199;49.138;7.414;2023-09-12T10:32:05;13.33;;;8.07;;
62202;SDS011;48199;49.138;7.414;2023-09-12T10:34:31;15.03;;;8.70;;
62202;SDS011;48199;49.138;7.414;2023-09-12T10:36:57;15.90;;;8.23;;
62202;SDS011;48199;49.138;7.414;2023-09-12T10:39:24;11.98;;;7.78;;
62202;SDS011;48199;49.138;7.414;2023-09-12T10:41:51;12.40;;;7.57;;
62202;SDS011;48199;49.138;7.414;2023-09-12T10:44:17;14.15;;;7.82;;
62202;SDS011;48199;49.138;7.414;2023-09-12T10:46:43;11.80;;;7.50;;
62202;SDS011;48199;49.138;7.414;2023-09-12T10:49:09;13.05;;;7.32;;
62202;SDS011;48199;49.138;7.414;2023-09-12T10:51:41;15.45;;;8.65;;
62202;SDS011;48199;49.138;7.414;2023-09-12T10:54:06;14.68;;;8.25;;
62202;SDS011;48199;49.138;7.414;2023-09-12T10:56:35;13.60;;;8.82;;
62202;SDS011;48199;49.138;7.414;2023-09-12T11:01:34;9.70;;;7.28;;
62202;SDS011;48199;49.138;7.414;2023-09-12T11:04:45;16.27;;;7.60;;
62202;SDS011;48199;49.138;7.414;2023-09-12T11:06:46;13.98;;;7.82;;
62202;SDS011;48199;49.138;7.414;2023-09-12T11:09:25;13.27;;;8.07;;
62202;SDS011;48199;49.138;7.414;2023-09-12T11:14:18;11.40;;;7.95;;
62202;SDS011;48199;49.138;7.414;2023-09-12T11:17:03;15.10;;;7.35;;
62202;SDS011;48199;49.138;7.414;2023-09-12T11:19:29;14.05;;;7.28;;
62202;SDS011;48199;49.138;7.414;2023-09-12T11:22:02;12.57;;;7.57;;
62202;SDS011;48199;49.138;7.414;2023-09-12T11:24:45;13.20;;;7.55;;
62202;SDS011;48199;49.138;7.414;2023-09-12T11:27:12;12.50;;;6.82;;
62202;SDS011;48199;49.138;7.414;2023-09-12T11:29:38;10.70;;;7.17;;
62202;SDS011;48199;49.138;7.414;2023-09-12T11:32:04;13.27;;;7.55;;
62202;SDS011;48199;49.138;7.414;2023-09-12T11:34:30;15.10;;;8.02;;
62202;SDS011;48199;49.138;7.414;2023-09-12T11:36:57;12.65;;;6.85;;
62202;SDS011;48199;49.138;7.414;2023-09-12T11:39:25;14.30;;;8.68;;
62202;SDS011;48199;49.138;7.414;2023-09-12T11:41:51;11.38;;;7.07;;
62202;SDS011;48199;49.138;7.414;2023-09-12T11:44:17;11.35;;;7.38;;
62202;SDS011;48199;49.138;7.414;2023-09-12T11:46:43;12.45;;;7.32;;
62202;SDS011;48199;49.138;7.414;2023-09-12T11:49:08;15.23;;;7.47;;
62202;SDS011;48199;49.138;7.414;2023-09-12T11:51:33;16.50;;;6.97;;
62202;SDS011;48199;49.138;7.414;2023-09-12T11:53:59;16.13;;;8.03;;
62202;SDS011;48199;49.138;7.414;2023-09-12T11:56:26;10.07;;;7.18;;
62202;SDS011;48199;49.138;7.414;2023-09-12T11:58:53;12.00;;;7.50;;
62202;SDS011;48199;49.138;7.414;2023-09-12T12:01:20;13.55;;;7.07;;
62202;SDS011;48199;49.138;7.414;2023-09-12T12:03:45;15.93;;;7.60;;
62202;SDS011;48199;49.138;7.414;2023-09-12T12:06:11;16.63;;;7.28;;
62202;SDS011;48199;49.138;7.414;2023-09-12T12:08:37;15.30;;;7.10;;
62202;SDS011;48199;49.138;7.414;2023-09-12T12:11:02;12.85;;;6.50;;
62202;SDS011;48199;49.138;7.414;2023-09-12T12:13:27;12.60;;;7.30;;
62202;SDS011;48199;49.138;7.414;2023-09-12T12:15:52;10.82;;;6.63;;
62202;SDS011;48199;49.138;7.414;2023-09-12T12:18:18;11.63;;;6.87;;
62202;SDS011;48199;49.138;7.414;2023-09-12T12:20:43;14.83;;;7.27;;
62202;SDS011;48199;49.138;7.414;2023-09-12T12:23:08;12.32;;;7.65;;
62202;SDS011;48199;49.138;7.414;2023-09-12T12:25:34;13.60;;;7.50;;
62202;SDS011;48199;49.138;7.414;2023-09-12T12:28:03;13.13;;;8.13;;
62202;SDS011;48199;49.138;7.414;2023-09-12T12:30:32;14.32;;;8.00;;
62202;SDS011;48199;49.138;7.414;2023-09-12T12:33:00;18.67;;;8.63;;
62202;SDS011;48199;49.138;7.414;2023-09-12T12:35:25;15.23;;;8.70;;
62202;SDS011;48199;49.138;7.414;2023-09-12T12:37:51;15.45;;;9.15;;
62202;SDS011;48199;49.138;7.414;2023-09-12T12:40:17;13.77;;;8.32;;
62202;SDS011;48199;49.138;7.414;2023-09-12T12:42:42;17.10;;;8.30;;
62202;SDS011;48199;49.138;7.414;2023-09-12T12:45:15;20.80;;;8.23;;
62202;SDS011;48199;49.138;7.414;2023-09-12T12:47:40;12.32;;;7.85;;
62202;SDS011;48199;49.138;7.414;2023-09-12T12:50:12;17.58;;;8.98;;
62202;SDS011;48199;49.138;7.414;2023-09-12T12:52:38;17.08;;;8.27;;
62202;SDS011;48199;49.138;7.414;2023-09-12T12:55:07;14.88;;;8.23;;
62202;SDS011;48199;49.138;7.414;2023-09-12T12:57:37;19.83;;;8.57;;
62202;SDS011;48199;49.138;7.414;2023-09-12T13:00:04;17.60;;;8.95;;
62202;SDS011;48199;49.138;7.414;2023-09-12T13:02:29;21.73;;;9.20;;
62202;SDS011;48199;49.138;7.414;2023-09-12T13:04:55;18.83;;;8.47;;
62202;SDS011;48199;49.138;7.414;2023-09-12T13:07:20;17.57;;;9.10;;
62202;SDS011;48199;49.138;7.414;2023-09-12T13:09:45;15.30;;;8.43;;
62202;SDS011;48199;49.138;7.414;2023-09-12T13:12:13;19.02;;;8.85;;
62202;SDS011;48199;49.138;7.414;2023-09-12T13:14:39;14.35;;;7.93;;
62202;SDS011;48199;49.138;7.414;2023-09-12T13:17:04;13.57;;;8.30;;
62202;SDS011;48199;49.138;7.414;2023-09-12T13:19:30;16.00;;;8.60;;
62202;SDS011;48199;49.138;7.414;2023-09-12T13:21:55;16.00;;;8.93;;
62202;SDS011;48199;49.138;7.414;2023-09-12T13:24:20;11.27;;;8.18;;
62202;SDS011;48199;49.138;7.414;2023-09-12T13:26:45;12.07;;;7.63;;
62202;SDS011;48199;49.138;7.414;2023-09-12T13:29:11;16.13;;;9.43;;
62202;SDS011;48199;49.138;7.414;2023-09-12T13:31:36;16.53;;;8.70;;
62202;SDS011;48199;49.138;7.414;2023-09-12T13:34:01;17.98;;;8.68;;
62202;SDS011;48199;49.138;7.414;2023-09-12T13:36:28;14.00;;;9.02;;
62202;SDS011;48199;49.138;7.414;2023-09-12T13:38:53;14.63;;;9.15;;
62202;SDS011;48199;49.138;7.414;2023-09-12T13:41:18;18.03;;;8.40;;
62202;SDS011;48199;49.138;7.414;2023-09-12T13:43:43;14.90;;;8.90;;
62202;SDS011;48199;49.138;7.414;2023-09-12T13:46:12;16.38;;;9.48;;
62202;SDS011;48199;49.138;7.414;2023-09-12T13:48:37;23.70;;;8.98;;
62202;SDS011;48199;49.138;7.414;2023-09-12T13:51:02;19.23;;;9.07;;
62202;SDS011;48199;49.138;7.414;2023-09-12T13:53:28;17.67;;;8.50;;
62202;SDS011;48199;49.138;7.414;2023-09-12T13:55:53;13.23;;;9.20;;
62202;SDS011;48199;49.138;7.414;2023-09-12T13:58:18;13.07;;;8.00;;
62202;SDS011;48199;49.138;7.414;2023-09-12T14:00:43;17.90;;;9.53;;
62202;SDS011;48199;49.138;7.414;2023-09-12T14:03:09;17.30;;;8.13;;
62202;SDS011;48199;49.138;7.414;2023-09-12T14:05:34;17.13;;;8.60;;
62202;SDS011;48199;49.138;7.414;2023-09-12T14:07:59;11.03;;;8.33;;
62202;SDS011;48199;49.138;7.414;2023-09-12T14:10:24;12.23;;;8.60;;
62202;SDS011;48199;49.138;7.414;2023-09-12T14:12:49;14.17;;;8.57;;
62202;SDS011;48199;49.138;7.414;2023-09-12T14:15:15;13.07;;;8.47;;
62202;SDS011;48199;49.138;7.414;2023-09-12T14:17:40;15.75;;;9.50;;
62202;SDS011;48199;49.138;7.414;2023-09-12T14:20:06;15.32;;;8.38;;
62202;SDS011;48199;49.138;7.414;2023-09-12T14:22:31;11.18;;;8.35;;
62202;SDS011;48199;49.138;7.414;2023-09-12T14:24:57;11.53;;;8.30;;
62202;SDS011;48199;49.138;7.414;2023-09-12T14:27:22;14.65;;;8.43;;
62202;SDS011;48199;49.138;7.414;2023-09-12T14:29:48;13.53;;;7.97;;